Time;durP1;ratioP1;P1;durP2;ratioP2;P2;SDS_P1;SDS_P2;PMS_P1;PMS_P2;Temp;Humidity;BMP_temperature;BMP_pressure;BME280_temperature;BME280_humidity;BME280_pressure;Samples;Min_cycle;Max_cycle;Signal;HPM_P1;HPM_P2
2023/02/03 00:01:37;;;;;;;7.10;5.20;;;;;;;-1.35;100.00;101352.50;4959610;28;20137;-82
2023/02/03 00:04:07;;;;;;;9.67;5.03;;;;;;;-1.32;100.00;101343.97;4988014;28;20046;-79
2023/02/03 00:06:34;;;;;;;9.23;4.60;;;;;;;-1.33;100.00;101326.66;4981949;28;20492;-79
2023/02/03 00:09:01;;;;;;;9.30;3.70;;;;;;;-1.24;100.00;101321.81;5011712;28;20042;-79
2023/02/03 00:11:31;;;;;;;8.77;5.10;;;;;;;-1.24;100.00;101316.66;4991370;28;20042;-80
2023/02/03 00:13:57;;;;;;;7.40;4.20;;;;;;;-1.23;100.00;101300.25;4974205;28;20121;-80
2023/02/03 00:16:24;;;;;;;9.77;4.57;;;;;;;-1.20;100.00;101290.88;4994440;28;20046;-80
2023/02/03 00:18:51;;;;;;;7.67;3.67;;;;;;;-1.15;100.00;101285.88;4994027;28;20318;-80
2023/02/03 00:21:18;;;;;;;5.00;3.43;;;;;;;-1.14;100.00;101280.75;5011092;28;20042;-80
2023/02/03 00:23:46;;;;;;;5.73;3.80;;;;;;;-1.13;100.00;101263.47;4997526;28;20046;-80
2023/02/03 00:26:15;;;;;;;8.07;4.70;;;;;;;-1.10;100.00;101260.97;5004908;28;20038;-79
2023/02/03 00:28:44;;;;;;;9.37;4.57;;;;;;;-1.07;100.00;101234.28;4994787;28;20042;-81
2023/02/03 00:31:15;;;;;;;6.20;2.70;;;;;;;-1.03;100.00;101226.66;4994087;28;20042;-80
2023/02/03 00:33:42;;;;;;;6.73;3.57;;;;;;;-0.99;100.00;101215.59;4974819;28;20045;-80
2023/02/03 00:36:10;;;;;;;5.30;3.57;;;;;;;-0.87;100.00;101220.31;4978679;28;20038;-80
2023/02/03 00:38:36;;;;;;;8.20;3.80;;;;;;;-0.80;100.00;101234.38;4994068;28;20034;-80
2023/02/03 00:41:03;;;;;;;5.87;4.00;;;;;;;-0.79;100.00;101236.13;4961502;28;20129;-80
2023/02/03 00:43:30;;;;;;;9.03;3.50;;;;;;;-0.74;100.00;101232.00;4990582;28;20069;-80
2023/02/03 00:45:57;;;;;;;6.87;3.50;;;;;;;-0.73;100.00;101231.16;4950496;28;20035;-80
2023/02/03 00:48:24;;;;;;;5.30;3.60;;;;;;;-0.69;100.00;101223.53;4981855;28;20046;-80
2023/02/03 00:50:51;;;;;;;8.43;2.93;;;;;;;-0.65;100.00;101232.31;4993346;28;20043;-80
2023/02/03 00:53:17;;;;;;;5.57;3.10;;;;;;;-0.56;100.00;101235.22;4999511;28;20046;-79
2023/02/03 00:55:44;;;;;;;6.90;3.77;;;;;;;-0.44;100.00;101214.84;4949553;28;20035;-82
2023/02/03 00:58:11;;;;;;;7.60;4.50;;;;;;;-0.45;100.00;101222.59;4972615;28;20500;-80
2023/02/03 01:00:39;;;;;;;6.00;3.90;;;;;;;-0.38;100.00;101216.78;4978182;28;20052;-80
2023/02/03 01:03:06;;;;;;;6.07;2.83;;;;;;;-0.35;100.00;101203.88;4992338;28;20046;-79
2023/02/03 01:05:33;;;;;;;9.47;4.10;;;;;;;-0.38;100.00;101196.88;4959661;28;20499;-81
2023/02/03 01:08:00;;;;;;;9.40;4.03;;;;;;;-0.32;100.00;101197.09;4992466;28;20042;-80
2023/02/03 01:10:27;;;;;;;6.17;4.30;;;;;;;-0.21;100.00;101191.34;4993557;28;20046;-81
2023/02/03 01:12:55;;;;;;;8.20;3.90;;;;;;;-0.18;100.00;101179.31;4992561;28;20042;-79
2023/02/03 01:15:21;;;;;;;7.77;3.73;;;;;;;-0.13;100.00;101179.47;5000745;28;20038;-80
2023/02/03 01:17:48;;;;;;;8.60;4.30;;;;;;;-0.09;100.00;101186.53;5009035;28;20043;-80
2023/02/03 01:20:15;;;;;;;8.13;4.40;;;;;;;-0.14;100.00;101186.41;4972768;28;20057;-79
2023/02/03 01:22:42;;;;;;;7.47;4.07;;;;;;;-0.11;100.00;101178.69;4992942;28;20038;-79
2023/02/03 01:25:09;;;;;;;6.20;3.83;;;;;;;-0.12;100.00;101179.53;4990979;28;20050;-80
2023/02/03 01:27:35;;;;;;;11.03;4.13;;;;;;;-0.03;100.00;101172.00;4992202;28;20447;-80
2023/02/03 01:30:03;;;;;;;9.53;4.30;;;;;;;0.07;100.00;101180.09;4993029;28;20042;-80
2023/02/03 01:32:29;;;;;;;9.63;4.17;;;;;;;0.13;100.00;101178.56;4992499;28;20050;-80
2023/02/03 01:34:56;;;;;;;11.73;4.27;;;;;;;0.23;100.00;101180.59;4991693;28;20533;-80
2023/02/03 01:37:23;;;;;;;10.43;5.53;;;;;;;0.19;100.00;101170.94;4979232;28;20042;-80
2023/02/03 01:39:49;;;;;;;11.33;4.40;;;;;;;0.38;100.00;101151.56;4973213;28;20139;-80
2023/02/03 01:42:16;;;;;;;10.47;4.50;;;;;;;0.35;100.00;101135.91;4972814;28;20039;-80
2023/02/03 01:44:50;;;;;;;13.03;5.63;;;;;;;0.24;100.00;101129.50;4988954;28;20047;-80
2023/02/03 01:47:45;;;;;;;8.32;4.25;;;;;;;0.31;100.00;101128.84;4989682;28;20047;-80
2023/02/03 01:50:27;;;;;;;11.73;5.83;;;;;;;0.42;100.00;101116.13;4968949;28;20069;-80
2023/02/03 01:52:57;;;;;;;12.80;5.40;;;;;;;0.43;100.00;101111.00;4957401;28;20074;-80
2023/02/03 01:55:40;;;;;;;13.67;6.00;;;;;;;0.55;100.00;101107.84;4974828;28;20066;-80
2023/02/03 01:58:14;;;;;;;12.53;5.93;;;;;;;0.48;100.00;101112.00;4956608;28;20039;-81
2023/02/03 02:00:42;;;;;;;10.17;5.57;;;;;;;0.60;100.00;101110.59;4972252;28;20038;-80
2023/02/03 02:03:09;;;;;;;12.73;5.37;;;;;;;0.51;100.00;101093.91;4956148;28;20053;-80
2023/02/03 02:05:53;;;;;;;10.23;5.83;;;;;;;0.57;100.00;101088.84;4981606;28;20037;-80
2023/02/03 02:08:22;;;;;;;13.10;5.70;;;;;;;0.60;100.00;101082.88;4992126;28;20519;-80
2023/02/03 02:10:49;;;;;;;10.47;5.07;;;;;;;0.73;100.00;101071.06;4972011;28;20523;-80
2023/02/03 02:13:17;;;;;;;8.00;4.60;;;;;;;0.65;100.00;101060.44;4959477;28;20046;-79
2023/02/03 02:15:59;;;;;;;9.10;5.27;;;;;;;0.68;100.00;101054.47;4972788;28;20425;-80
2023/02/03 02:18:38;;;;;;;11.40;5.30;;;;;;;0.73;100.00;101056.31;5002323;28;20069;-80
2023/02/03 02:21:27;;;;;;;11.63;5.83;;;;;;;0.68;100.00;101046.66;4990407;28;20043;-80
2023/02/03 02:24:23;;;;;;;6.87;4.37;;;;;;;0.57;100.00;101034.25;4995613;28;20042;-80
2023/02/03 02:27:17;;;;;;;8.50;4.87;;;;;;;0.62;100.00;101008.38;5065566;23;20037;-80
2023/02/03 02:30:05;;;;;;;6.63;4.28;;;;;;;0.54;100.00;101000.38;5026546;28;20043;-80
2023/02/03 02:33:02;;;;;;;9.03;4.23;;;;;;;0.53;100.00;100993.44;5034966;28;20049;-81
2023/02/03 02:35:50;;;;;;;6.70;4.37;;;;;;;0.55;100.00;100991.75;5010970;28;20030;-81
2023/02/03 02:38:45;;;;;;;6.20;3.90;;;;;;;0.52;100.00;101001.19;5014594;28;20442;-81
2023/02/03 02:41:19;;;;;;;4.80;3.50;;;;;;;0.48;100.00;100984.63;5011502;28;20042;-81
2023/02/03 02:43:54;;;;;;;7.60;3.90;;;;;;;0.44;100.00;100966.34;4985579;28;20136;-81
2023/02/03 02:46:31;;;;;;;5.80;3.90;;;;;;;0.36;100.00;100963.53;5010819;28;20061;-81
2023/02/03 02:49:24;;;;;;;6.77;3.70;;;;;;;0.40;100.00;100965.34;5004692;28;20727;-81
2023/02/03 02:51:52;;;;;;;6.43;3.80;;;;;;;0.36;100.00;100955.72;5000004;28;20060;-81
2023/02/03 02:54:21;;;;;;;6.57;4.07;;;;;;;0.35;100.00;100940.09;5021223;28;20033;-81
2023/02/03 02:56:51;;;;;;;6.23;3.80;;;;;;;0.30;100.00;100939.09;4988830;28;20518;-81
2023/02/03 02:59:17;;;;;;;7.47;4.30;;;;;;;0.32;100.00;100933.09;5019466;28;20037;-81
2023/02/03 03:01:44;;;;;;;5.03;3.30;;;;;;;0.30;100.00;100926.09;5001576;28;20042;-80
2023/02/03 03:04:12;;;;;;;6.53;4.03;;;;;;;0.35;100.00;100915.00;5001109;28;20450;-80
2023/02/03 03:06:47;;;;;;;7.07;3.50;;;;;;;0.37;100.00;100907.22;5001572;28;20482;-82
2023/02/03 03:09:20;;;;;;;;;;;;;;;0.31;100.00;100907.06;4985666;28;20060;-81
2023/02/03 03:11:54;;;;;;;6.80;3.50;;;;;;;0.25;100.00;100881.81;5001581;28;19932;-79
2023/02/03 03:14:22;;;;;;;6.93;3.47;;;;;;;0.31;100.00;100871.56;5002086;28;20029;-80
2023/02/03 03:16:55;;;;;;;6.47;3.57;;;;;;;0.17;100.00;100860.84;5002118;28;20042;-79
2023/02/03 03:19:24;;;;;;;7.03;3.47;;;;;;;0.15;100.00;100861.63;4983104;28;20092;-80
2023/02/03 03:21:57;;;;;;;4.80;3.27;;;;;;;0.22;100.00;100855.75;4991770;28;20064;-81
2023/02/03 03:24:30;;;;;;;4.40;3.30;;;;;;;0.21;100.00;100852.28;5001130;28;20038;-80
2023/02/03 03:27:21;;;;;;;6.00;3.33;;;;;;;0.26;100.00;100850.69;5001260;28;20049;-79
2023/02/03 03:29:57;;;;;;;5.20;3.13;;;;;;;0.30;100.00;100840.34;5000969;28;20064;-80
2023/02/03 03:32:26;;;;;;;5.83;3.40;;;;;;;0.22;100.00;100829.78;4996897;28;20480;-80
2023/02/03 03:34:54;;;;;;;4.60;2.90;;;;;;;0.35;100.00;100823.16;4987561;28;20045;-80
2023/02/03 03:37:34;;;;;;;6.80;3.30;;;;;;;0.33;100.00;100815.31;4983141;28;20112;-79
2023/02/03 03:40:19;;;;;;;5.80;3.70;;;;;;;0.24;100.00;100802.09;4984430;28;20801;-79
2023/02/03 03:42:49;;;;;;;7.47;3.30;;;;;;;0.26;100.00;100796.13;5016573;28;20422;-80
2023/02/03 03:45:37;;;;;;;4.67;3.20;;;;;;;0.39;100.00;100786.88;5028841;28;20068;-81
2023/02/03 03:48:36;;;;;;;7.60;3.43;;;;;;;0.38;100.00;100782.50;5022891;28;20091;-81
2023/02/03 03:51:18;;;;;;;4.10;3.10;;;;;;;0.42;100.00;100786.06;5027537;28;20056;-80
2023/02/03 03:53:46;;;;;;;5.90;3.67;;;;;;;0.38;100.00;100785.13;5024527;28;20050;-82
2023/02/03 03:56:18;;;;;;;4.63;3.13;;;;;;;0.34;100.00;100783.31;5011070;28;20124;-81
2023/02/03 03:58:46;;;;;;;6.37;3.47;;;;;;;0.42;100.00;100775.66;4980410;28;20046;-80
2023/02/03 04:01:14;;;;;;;5.10;2.90;;;;;;;0.47;100.00;100787.03;4997208;28;20041;-78
2023/02/03 04:03:45;;;;;;;4.87;3.77;;;;;;;0.43;100.00;100773.13;5020595;28;20068;-78
2023/02/03 04:06:12;;;;;;;6.20;3.90;;;;;;;0.39;100.00;100763.47;4980405;28;20061;-79
2023/02/03 04:08:39;;;;;;;5.13;3.07;;;;;;;0.36;100.00;100749.56;5000816;28;20454;-79
2023/02/03 04:11:06;;;;;;;5.63;3.60;;;;;;;0.39;100.00;100750.47;5015467;28;20037;-79
2023/02/03 04:13:33;;;;;;;8.10;3.97;;;;;;;0.36;100.00;100736.56;5021631;28;20060;-78
2023/02/03 04:15:59;;;;;;;7.33;3.90;;;;;;;0.40;100.00;100723.66;5020741;28;20494;-78
2023/02/03 04:18:26;;;;;;;5.20;3.53;;;;;;;0.49;100.00;100726.44;4989240;28;20056;-79
2023/02/03 04:20:53;;;;;;;5.37;3.43;;;;;;;0.59;100.00;100716.22;5004145;28;20038;-79
2023/02/03 04:23:20;;;;;;;5.70;3.30;;;;;;;0.59;100.00;100721.44;4989509;28;20041;-79
2023/02/03 04:25:46;;;;;;;4.80;3.60;;;;;;;0.51;100.00;100703.97;5021172;28;20033;-78
2023/02/03 04:28:13;;;;;;;4.97;3.50;;;;;;;0.44;100.00;100704.69;5022357;28;20060;-79
2023/02/03 04:30:40;;;;;;;5.10;3.40;;;;;;;0.47;100.00;100696.06;5001878;28;20064;-79
2023/02/03 04:33:06;;;;;;;6.40;3.80;;;;;;;0.51;100.00;100685.78;5013469;28;20049;-80
2023/02/03 04:35:33;;;;;;;5.67;3.70;;;;;;;0.53;100.00;100670.22;5021723;28;20041;-80
2023/02/03 04:37:59;;;;;;;5.03;3.77;;;;;;;0.57;100.00;100656.41;5021962;28;20049;-79
2023/02/03 04:40:26;;;;;;;6.43;4.07;;;;;;;0.68;100.00;100651.44;5002495;28;20041;-79
2023/02/03 04:42:53;;;;;;;5.30;3.70;;;;;;;0.69;100.00;100641.06;5023004;28;20466;-79
2023/02/03 04:45:20;;;;;;;6.23;4.03;;;;;;;0.75;100.00;100645.50;5005023;28;22024;-79
2023/02/03 04:47:51;;;;;;;6.07;3.57;;;;;;;0.70;100.00;100648.03;5018636;28;20486;-79
2023/02/03 04:50:20;;;;;;;6.87;4.00;;;;;;;0.78;100.00;100655.97;4990568;28;20046;-80
2023/02/03 04:52:46;;;;;;;6.07;3.57;;;;;;;0.65;100.00;100652.25;5022755;28;20057;-78
2023/02/03 04:55:13;;;;;;;5.13;3.73;;;;;;;0.72;100.00;100645.44;5004267;28;20057;-79
2023/02/03 04:57:40;;;;;;;6.40;3.90;;;;;;;0.81;100.00;100635.22;5001891;28;20041;-78
2023/02/03 05:00:07;;;;;;;6.00;3.40;;;;;;;0.87;100.00;100624.94;5000824;28;20053;-79
2023/02/03 05:02:34;;;;;;;5.80;3.63;;;;;;;0.84;100.00;100620.56;5020428;28;20065;-79
2023/02/03 05:05:00;;;;;;;6.57;3.70;;;;;;;0.81;100.00;100617.00;5016211;28;20417;-79
2023/02/03 05:07:27;;;;;;;4.80;3.30;;;;;;;0.86;100.00;100620.59;5018477;28;20037;-79
2023/02/03 05:09:54;;;;;;;6.27;3.60;;;;;;;0.91;100.00;100625.84;4999257;28;20422;-78
2023/02/03 05:12:21;;;;;;;5.40;3.10;;;;;;;0.84;100.00;100623.16;5001131;28;20046;-78
2023/02/03 05:14:47;;;;;;;5.47;3.43;;;;;;;0.91;100.00;100608.50;4998566;28;20038;-79
2023/02/03 05:17:14;;;;;;;5.57;3.70;;;;;;;0.94;100.00;100594.72;4973362;28;20044;-78
2023/02/03 05:19:40;;;;;;;6.47;3.33;;;;;;;0.98;100.00;100581.75;5020671;28;20076;-79
2023/02/03 05:22:07;;;;;;;7.23;4.03;;;;;;;1.03;100.00;100582.72;5024265;28;20076;-78
2023/02/03 05:24:34;;;;;;;8.03;4.50;;;;;;;1.22;100.00;100567.41;5012842;28;20060;-78
2023/02/03 05:27:01;;;;;;;7.53;4.27;;;;;;;1.19;100.00;100563.06;4988893;28;20045;-79
2023/02/03 05:29:27;;;;;;;9.60;5.03;;;;;;;1.22;100.00;100546.59;4973292;28;20046;-78
2023/02/03 05:31:54;;;;;;;8.53;5.13;;;;;;;1.27;100.00;100552.75;4987725;28;20053;-78
2023/02/03 05:34:21;;;;;;;9.57;5.40;;;;;;;1.38;100.00;100533.84;5034692;28;20037;-78
2023/02/03 05:36:47;;;;;;;8.50;5.47;;;;;;;1.35;100.00;100522.53;5001459;28;20045;-79
2023/02/03 05:39:14;;;;;;;10.03;5.87;;;;;;;1.39;100.00;100527.78;5030740;28;20049;-78
2023/02/03 05:41:53;;;;;;;14.57;7.80;;;;;;;1.56;100.00;100524.53;5001157;28;20108;-79
2023/02/03 05:44:25;;;;;;;15.67;6.93;;;;;;;1.61;100.00;100515.94;5003182;28;20037;-78
2023/02/03 05:46:53;;;;;;;16.10;7.83;;;;;;;1.87;100.00;100507.59;5014128;28;20554;-78
2023/02/03 05:49:22;;;;;;;16.20;9.27;;;;;;;1.91;100.00;100506.75;5000405;28;20037;-79
2023/02/03 05:51:50;;;;;;;17.80;8.63;;;;;;;1.95;100.00;100495.53;5000051;28;20043;-79
2023/02/03 05:54:17;;;;;;;20.53;9.93;;;;;;;2.09;100.00;100491.34;4999334;28;20041;-78
2023/02/03 05:56:43;;;;;;;22.00;10.10;;;;;;;2.13;100.00;100481.84;4989238;28;20137;-79
2023/02/03 05:59:10;;;;;;;18.30;9.17;;;;;;;2.17;100.00;100474.03;5010275;28;20041;-79
2023/02/03 06:01:37;;;;;;;19.60;9.70;;;;;;;2.22;100.00;100469.78;5001113;28;20634;-79
2023/02/03 06:04:04;;;;;;;19.03;9.27;;;;;;;2.28;100.00;100460.28;5002563;28;20127;-79
2023/02/03 06:06:34;;;;;;;20.97;10.70;;;;;;;2.35;100.00;100446.41;4977272;28;20030;-79
2023/02/03 06:09:02;;;;;;;22.63;10.33;;;;;;;2.42;100.00;100448.22;5001712;28;20041;-79
2023/02/03 06:11:29;;;;;;;25.03;11.20;;;;;;;2.54;100.00;100448.34;5017003;28;20041;-78
2023/02/03 06:13:57;;;;;;;28.03;12.60;;;;;;;2.59;100.00;100438.81;4995618;28;20041;-79
2023/02/03 06:16:25;;;;;;;26.87;11.93;;;;;;;2.65;100.00;100432.78;5007429;28;20468;-79
2023/02/03 06:18:53;;;;;;;23.73;11.97;;;;;;;2.72;100.00;100429.38;4983511;28;20038;-79
2023/02/03 06:21:21;;;;;;;31.67;13.17;;;;;;;2.88;100.00;100426.00;4983491;28;20483;-80
2023/02/03 06:23:47;;;;;;;30.93;14.63;;;;;;;2.90;100.00;100415.56;5021711;28;20041;-79
2023/02/03 06:26:14;;;;;;;31.00;15.73;;;;;;;3.04;100.00;100414.81;4998808;28;20049;-79
2023/02/03 06:28:41;;;;;;;33.80;14.17;;;;;;;3.19;100.00;100410.50;5000677;28;20422;-79
2023/02/03 06:31:07;;;;;;;36.57;16.10;;;;;;;3.36;100.00;100404.53;4999760;28;20479;-78
2023/02/03 06:33:34;;;;;;;37.70;17.67;;;;;;;3.49;100.00;100392.41;4996543;28;20095;-80
2023/02/03 06:36:01;;;;;;;38.97;16.70;;;;;;;3.39;100.00;100391.50;5009302;28;20048;-79
2023/02/03 06:38:27;;;;;;;39.73;17.10;;;;;;;3.59;100.00;100393.28;5018852;28;20544;-80
2023/02/03 06:40:54;;;;;;;39.77;17.23;;;;;;;3.77;100.00;100389.88;5015729;28;20072;-79
2023/02/03 06:43:21;;;;;;;36.30;16.47;;;;;;;3.86;100.00;100380.31;5018444;28;20033;-79
2023/02/03 06:45:48;;;;;;;39.07;18.87;;;;;;;3.85;100.00;100375.09;5024715;28;20546;-80
2023/02/03 06:48:15;;;;;;;39.00;16.97;;;;;;;3.95;100.00;100371.59;4997029;28;20038;-79
2023/02/03 06:50:41;;;;;;;37.70;16.80;;;;;;;4.00;100.00;100363.78;4999081;28;20091;-79
2023/02/03 06:53:08;;;;;;;41.33;18.47;;;;;;;4.10;100.00;100362.94;5005218;28;20041;-80
2023/02/03 06:55:35;;;;;;;37.73;19.03;;;;;;;4.20;100.00;100352.50;4996908;28;20417;-80
2023/02/03 06:58:01;;;;;;;33.67;16.87;;;;;;;4.25;100.00;100342.03;4991967;28;20041;-79
2023/02/03 07:00:28;;;;;;;34.37;16.83;;;;;;;4.28;100.00;100333.28;5003907;28;20049;-79
2023/02/03 07:02:56;;;;;;;29.90;15.40;;;;;;;4.40;100.00;100322.84;5007283;28;20562;-79
2023/02/03 07:05:23;;;;;;;33.57;17.27;;;;;;;4.51;100.00;100321.06;4986127;28;20065;-79
2023/02/03 07:07:50;;;;;;;33.33;16.53;;;;;;;4.51;100.00;100314.09;4998843;28;20034;-79
2023/02/03 07:10:17;;;;;;;32.23;15.27;;;;;;;4.70;100.00;100311.44;4999866;28;20041;-80
2023/02/03 07:12:44;;;;;;;34.47;17.27;;;;;;;4.71;100.00;100303.63;5004886;28;20053;-79
2023/02/03 07:15:11;;;;;;;30.80;15.83;;;;;;;4.73;100.00;100295.75;5033257;28;20056;-80
2023/02/03 07:17:38;;;;;;;36.60;15.80;;;;;;;4.80;100.00;100298.34;5019256;28;20041;-80
2023/02/03 07:20:05;;;;;;;28.83;14.97;;;;;;;4.89;100.00;100300.06;4974658;28;20076;-80
2023/02/03 07:22:31;;;;;;;29.33;14.30;;;;;;;4.90;100.00;100285.25;4993630;28;20046;-80
2023/02/03 07:24:58;;;;;;;31.17;14.43;;;;;;;5.02;100.00;100283.44;4998803;28;20045;-79
2023/02/03 07:27:26;;;;;;;30.13;14.90;;;;;;;5.03;100.00;100274.69;5032135;28;20042;-79
2023/02/03 07:29:53;;;;;;;26.50;13.07;;;;;;;5.02;100.00;100267.72;5001881;28;20049;-79
2023/02/03 07:32:20;;;;;;;24.20;11.90;;;;;;;5.09;100.00;100271.19;5020272;28;20049;-79
2023/02/03 07:34:46;;;;;;;23.87;12.73;;;;;;;5.16;100.00;100264.19;5036850;28;20034;-78
2023/02/03 07:37:13;;;;;;;22.70;12.53;;;;;;;5.24;100.00;100271.13;5002480;28;20051;-80
2023/02/03 07:39:41;;;;;;;22.70;11.90;;;;;;;5.30;100.00;100260.63;5003016;28;20056;-79
2023/02/03 07:42:07;;;;;;;22.73;10.87;;;;;;;5.30;100.00;100265.88;5035476;28;20061;-80
2023/02/03 07:44:38;;;;;;;20.63;10.53;;;;;;;5.28;100.00;100262.34;4983379;28;20042;-80
2023/02/03 07:47:04;;;;;;;20.07;10.47;;;;;;;5.36;100.00;100255.31;4993599;28;20502;-80
2023/02/03 07:49:31;;;;;;;20.17;9.47;;;;;;;5.34;100.00;100254.47;5000421;28;20052;-81
2023/02/03 07:51:58;;;;;;;19.93;9.83;;;;;;;5.43;100.00;100261.41;5022880;28;20614;-79
2023/02/03 07:54:25;;;;;;;21.43;10.17;;;;;;;5.47;100.00;100231.72;5002069;28;20042;-79
2023/02/03 07:56:53;;;;;;;20.43;10.60;;;;;;;5.48;100.00;100230.81;5002935;28;20033;-79
2023/02/03 07:59:22;;;;;;;15.60;9.23;;;;;;;5.50;100.00;100223.81;5016208;28;20461;-79
2023/02/03 08:01:48;;;;;;;20.37;10.10;;;;;;;5.48;100.00;100219.47;4985213;28;20042;-80
2023/02/03 08:04:16;;;;;;;15.47;9.47;;;;;;;5.52;100.00;100210.69;4999527;28;20042;-80
2023/02/03 08:06:45;;;;;;;15.50;8.57;;;;;;;5.54;100.00;100206.31;4991528;28;20045;-80
2023/02/03 08:09:11;;;;;;;17.03;8.80;;;;;;;5.60;100.00;100208.91;5015605;28;20099;-81
2023/02/03 08:11:38;;;;;;;17.67;8.43;;;;;;;5.59;100.00;100191.44;5014970;28;20441;-80
2023/02/03 08:14:05;;;;;;;16.50;8.10;;;;;;;5.68;100.00;100187.88;4983483;28;20037;-82
2023/02/03 08:16:31;;;;;;;14.97;8.43;;;;;;;5.69;100.00;100182.63;5016235;28;20042;-81
2023/02/03 08:18:58;;;;;;;14.17;7.50;;;;;;;5.68;100.00;100170.41;4983696;28;20076;-80
2023/02/03 08:21:25;;;;;;;13.93;7.83;;;;;;;5.68;100.00;100182.63;4996490;28;20450;-81
2023/02/03 08:23:51;;;;;;;14.30;7.83;;;;;;;5.72;100.00;100177.38;4989142;28;20045;-81
2023/02/03 08:26:18;;;;;;;13.40;6.90;;;;;;;5.76;100.00;100176.44;5061643;23;20053;-84
2023/02/03 08:28:48;;;;;;;13.10;7.13;;;;;;;5.76;100.00;100171.19;4959049;28;20490;-86
2023/02/03 08:31:16;;;;;;;9.43;5.90;;;;;;;5.80;100.00;100167.69;4980561;28;20602;-87
2023/02/03 08:33:43;;;;;;;9.40;5.93;;;;;;;5.82;100.00;100168.53;4977144;28;20100;-86
2023/02/03 08:36:10;;;;;;;10.93;6.97;;;;;;;5.80;100.00;100153.69;4961469;28;20049;-89
2023/02/03 08:38:37;;;;;;;9.23;5.67;;;;;;;5.82;100.00;100138.81;4961146;28;20423;-85
2023/02/03 08:41:13;;;;;;;9.03;5.73;;;;;;;5.85;100.00;100131.78;4969382;28;20077;-86
2023/02/03 08:43:40;;;;;;;9.13;5.97;;;;;;;5.91;100.00;100139.63;4926445;28;20488;-86
2023/02/03 08:46:09;;;;;;;12.00;6.37;;;;;;;5.91;100.00;100120.41;4957500;28;20047;-86
2023/02/03 08:48:36;;;;;;;9.27;5.67;;;;;;;5.90;100.00;100123.91;4974352;28;20699;-88
2023/02/03 08:51:13;;;;;;;11.73;6.37;;;;;;;5.92;100.00;100112.53;4926272;28;20045;-85
2023/02/03 08:53:39;;;;;;;10.03;5.80;;;;;;;5.92;100.00;100098.56;4941711;28;20070;-86
2023/02/03 08:56:08;;;;;;;8.23;4.70;;;;;;;5.99;100.00;100096.75;4952959;28;20045;-86
2023/02/03 08:58:35;;;;;;;10.40;5.43;;;;;;;5.95;100.00;100088.03;4942870;28;20238;-86
2023/02/03 09:01:12;;;;;;;8.77;5.43;;;;;;;5.98;100.00;100084.53;4954885;28;20128;-85
2023/02/03 09:03:40;;;;;;;7.10;4.73;;;;;;;6.02;100.00;100075.72;4932210;28;20515;-85
2023/02/03 09:06:08;;;;;;;8.60;4.60;;;;;;;6.05;100.00;100079.16;4925707;28;20073;-86
2023/02/03 09:08:34;;;;;;;8.97;4.77;;;;;;;6.07;100.00;100087.91;4957750;28;20098;-85
2023/02/03 09:11:01;;;;;;;9.00;4.63;;;;;;;6.09;100.00;100078.25;4942458;28;20146;-86
2023/02/03 09:13:29;;;;;;;7.27;4.47;;;;;;;6.12;100.00;100075.59;4961618;28;20046;-85
2023/02/03 09:15:59;;;;;;;7.27;4.43;;;;;;;6.14;100.00;100070.34;4960090;28;20129;-85
2023/02/03 09:18:26;;;;;;;7.10;4.37;;;;;;;6.16;100.00;100063.31;4956899;28;20134;-83
2023/02/03 09:21:01;;;;;;;7.83;4.17;;;;;;;6.23;100.00;100065.00;4972576;28;20069;-82
2023/02/03 09:23:28;;;;;;;6.03;3.70;;;;;;;6.20;100.00;100055.38;4943921;28;20050;-84
2023/02/03 09:25:55;;;;;;;6.80;3.97;;;;;;;6.29;100.00;100062.28;4945993;28;20059;-82
2023/02/03 09:28:22;;;;;;;6.97;4.13;;;;;;;6.28;100.00;100054.44;4957069;28;20061;-83
2023/02/03 09:30:49;;;;;;;6.77;4.00;;;;;;;6.29;100.00;100046.53;4959447;28;20047;-82
2023/02/03 09:33:15;;;;;;;4.70;3.23;;;;;;;6.34;100.00;100046.50;4959840;28;20042;-82
2023/02/03 09:35:50;;;;;;;4.80;3.20;;;;;;;6.32;100.00;100029.91;4942924;28;20165;-82
2023/02/03 09:38:17;;;;;;;3.60;2.83;;;;;;;6.35;100.00;100037.72;4945388;28;20129;-82
2023/02/03 09:40:46;;;;;;;3.97;2.77;;;;;;;6.38;100.00;100046.41;4959748;28;20069;-86
2023/02/03 09:43:22;;;;;;;4.07;2.70;;;;;;;6.41;100.00;100045.53;4961514;28;20057;-86
2023/02/03 09:45:50;;;;;;;4.80;2.60;;;;;;;6.42;100.00;100048.13;4975175;28;20046;-85
2023/02/03 09:48:23;;;;;;;3.73;2.07;;;;;;;6.45;100.00;100049.81;4956328;28;20053;-86
2023/02/03 09:50:51;;;;;;;2.92;1.92;;;;;;;6.44;100.00;100038.47;4943097;28;20045;-86
2023/02/03 09:53:29;;;;;;;3.00;2.00;;;;;;;6.41;100.00;100053.41;4943215;28;20046;-85
2023/02/03 09:55:57;;;;;;;3.10;1.60;;;;;;;6.45;100.00;100044.56;4959511;28;20723;-85
2023/02/03 09:58:26;;;;;;;3.03;1.60;;;;;;;6.41;100.00;100042.91;4940113;28;20057;-85
2023/02/03 10:00:55;;;;;;;2.40;1.57;;;;;;;6.42;100.00;100049.88;4941602;28;20046;-85
2023/02/03 10:03:36;;;;;;;2.67;1.60;;;;;;;6.47;100.00;100058.53;4942058;28;20047;-86
2023/02/03 10:06:26;;;;;;;7.07;1.70;;;;;;;6.54;100.00;100065.44;4942413;28;20061;-85
2023/02/03 10:09:33;;;;;;;1.73;1.23;;;;;;;6.59;100.00;100094.25;4959100;28;20510;-85
2023/02/03 10:12:18;;;;;;;2.03;1.33;;;;;;;6.51;100.00;100120.59;4947174;28;20054;-85
2023/02/03 10:15:20;;;;;;;3.63;1.37;;;;;;;6.30;100.00;100119.09;4975270;28;20043;-86
2023/02/03 10:17:55;;;;;;;3.17;1.30;;;;;;;6.20;100.00;100133.22;4928203;28;20523;-87
2023/02/03 10:20:54;;;;;;;5.77;1.43;;;;;;;6.21;100.00;100125.31;4942814;28;20046;-86
2023/02/03 10:23:29;;;;;;;7.73;2.77;;;;;;;6.22;100.00;100120.94;4950046;28;20487;-87
2023/02/03 10:25:57;;;;;;;8.73;2.43;;;;;;;6.18;100.00;100107.00;4950496;28;20046;-85
2023/02/03 10:28:36;;;;;;;5.70;2.27;;;;;;;6.13;100.00;100100.94;4952790;28;20514;-83
2023/02/03 10:31:11;;;;;;;11.00;2.90;;;;;;;6.17;100.00;100114.91;4955254;28;20058;-85
2023/02/03 10:33:46;;;;;;;12.00;2.90;;;;;;;6.16;100.00;100089.56;4950016;28;20053;-86
2023/02/03 10:36:31;;;;;;;11.07;2.43;;;;;;;6.13;100.00;100087.81;4943274;28;20411;-84
2023/02/03 10:39:16;;;;;;;;;;;;;;;6.17;100.00;100100.03;4957128;28;20046;-84
2023/02/03 10:41:43;;;;;;;10.73;3.08;;;;;;;6.22;100.00;100097.31;4967608;28;19984;-83
2023/02/03 10:44:12;;;;;;;9.00;2.20;;;;;;;6.19;100.00;100090.38;4939285;28;20491;-84
2023/02/03 10:46:40;;;;;;;13.50;2.77;;;;;;;6.25;100.00;100094.69;4923446;28;20233;-85
2023/02/03 10:49:09;;;;;;;11.23;2.90;;;;;;;6.28;100.00;100099.03;4924482;28;20039;-84
2023/02/03 10:51:47;;;;;;;8.77;2.57;;;;;;;6.21;100.00;100098.22;4927800;28;20051;-86
2023/02/03 10:54:31;;;;;;;13.90;3.03;;;;;;;6.27;100.00;100099.91;4940366;28;20142;-85
2023/02/03 10:57:03;;;;;;;12.27;3.27;;;;;;;6.20;100.00;100094.72;4954593;28;20057;-86
2023/02/03 10:59:34;;;;;;;12.73;3.17;;;;;;;6.38;100.00;100095.41;4955628;28;20081;-84
2023/02/03 11:02:13;;;;;;;7.87;2.83;;;;;;;6.43;100.00;100102.34;4956079;28;20050;-85
2023/02/03 11:04:40;;;;;;;11.63;3.03;;;;;;;6.57;100.00;100112.66;4959120;28;20047;-84
2023/02/03 11:07:09;;;;;;;8.87;3.30;;;;;;;6.51;100.00;100085.63;4943836;28;20035;-84
2023/02/03 11:09:37;;;;;;;8.97;3.57;;;;;;;6.54;100.00;100085.56;4963199;28;20039;-84
2023/02/03 11:12:16;;;;;;;12.20;3.63;;;;;;;6.46;100.00;100112.78;4958215;28;20132;-83
2023/02/03 11:14:44;;;;;;;11.80;2.83;;;;;;;6.49;100.00;100064.66;4963390;28;20046;-85
2023/02/03 11:17:22;;;;;;;7.57;2.70;;;;;;;6.75;100.00;100090.53;4945329;28;20097;-84
2023/02/03 11:20:13;;;;;;;8.07;2.20;;;;;;;6.57;100.00;100091.66;4979330;28;20054;-84
2023/02/03 11:22:41;;;;;;;10.30;2.43;;;;;;;6.59;100.00;100084.63;4989319;28;20034;-87
2023/02/03 11:25:28;;;;;;;14.20;2.70;;;;;;;6.65;100.00;100079.31;4946061;28;20054;-83
2023/02/03 11:27:55;;;;;;;7.67;2.67;;;;;;;6.69;100.00;100093.25;4946220;28;20125;-84
2023/02/03 11:30:25;;;;;;;8.10;2.50;;;;;;;6.80;100.00;100093.94;4946728;28;20113;-87
2023/02/03 11:32:52;;;;;;;10.53;2.87;;;;;;;7.01;100.00;100114.66;4946566;28;20073;-85
2023/02/03 11:35:24;;;;;;;12.47;3.03;;;;;;;7.13;100.00;100118.84;4978260;28;20046;-86